sensor_id;sensor_type;location;lat;lon;timestamp;pressure;altitude;pressure_sealevel;temperature;humidity
55347;BME280;41218;55.700;38.270;2022-08-01T00:00:41;100095.69;;;14.95;59.22
55347;BME280;41218;55.700;38.270;2022-08-01T00:05:42;100123.97;;;15.12;59.27
55347;BME280;41218;55.700;38.270;2022-08-01T00:10:44;100120.38;;;15.04;59.31
55347;BME280;41218;55.700;38.270;2022-08-01T00:15:45;100107.53;;;14.81;59.40
55347;BME280;41218;55.700;38.270;2022-08-01T00:20:45;100099.13;;;14.67;59.62
55347;BME280;41218;55.700;38.270;2022-08-01T00:25:46;100109.75;;;14.54;59.94
55347;BME280;41218;55.700;38.270;2022-08-01T00:30:46;100099.78;;;14.46;60.30
55347;BME280;41218;55.700;38.270;2022-08-01T00:35:47;100112.47;;;14.47;60.22
55347;BME280;41218;55.700;38.270;2022-08-01T00:40:48;100100.13;;;14.41;60.23
55347;BME280;41218;55.700;38.270;2022-08-01T00:45:49;100116.09;;;14.48;60.19
55347;BME280;41218;55.700;38.270;2022-08-01T00:50:49;100114.06;;;14.45;59.84
55347;BME280;41218;55.700;38.270;2022-08-01T00:55:50;100100.03;;;14.27;60.18
55347;BME280;41218;55.700;38.270;2022-08-01T01:00:51;100089.28;;;14.21;60.25
55347;BME280;41218;55.700;38.270;2022-08-01T01:06:01;100114.00;;;14.34;60.58
55347;BME280;41218;55.700;38.270;2022-08-01T01:11:13;100102.44;;;14.28;60.56
55347;BME280;41218;55.700;38.270;2022-08-01T01:16:17;100107.63;;;14.33;60.19
55347;BME280;41218;55.700;38.270;2022-08-01T01:31:49;100113.41;;;14.10;60.12
55347;BME280;41218;55.700;38.270;2022-08-01T01:36:52;100110.59;;;14.07;60.17
55347;BME280;41218;55.700;38.270;2022-08-01T01:41:55;100103.44;;;14.02;60.26
55347;BME280;41218;55.700;38.270;2022-08-01T01:46:59;100097.38;;;13.93;60.13
55347;BME280;41218;55.700;38.270;2022-08-01T01:52:02;100109.31;;;13.97;60.03
55347;BME280;41218;55.700;38.270;2022-08-01T01:57:04;100098.50;;;13.85;60.06
55347;BME280;41218;55.700;38.270;2022-08-01T02:02:07;100115.63;;;13.90;60.12
55347;BME280;41218;55.700;38.270;2022-08-01T02:07:13;100112.41;;;13.85;60.07
55347;BME280;41218;55.700;38.270;2022-08-01T02:12:18;100108.38;;;13.78;60.11
55347;BME280;41218;55.700;38.270;2022-08-01T02:17:20;100105.16;;;13.73;60.02
55347;BME280;41218;55.700;38.270;2022-08-01T02:22:27;100086.44;;;13.62;60.79
55347;BME280;41218;55.700;38.270;2022-08-01T02:33:08;100101.19;;;13.74;60.05
55347;BME280;41218;55.700;38.270;2022-08-01T02:38:12;100081.53;;;13.52;60.49
55347;BME280;41218;55.700;38.270;2022-08-01T02:43:17;100081.81;;;13.36;61.15
55347;BME280;41218;55.700;38.270;2022-08-01T02:48:20;100117.28;;;13.54;61.00
55347;BME280;41218;55.700;38.270;2022-08-01T02:53:23;100103.31;;;13.47;60.98
55347;BME280;41218;55.700;38.270;2022-08-01T02:58:24;100083.31;;;13.30;61.25
55347;BME280;41218;55.700;38.270;2022-08-01T03:03:26;100084.84;;;13.28;61.34
55347;BME280;41218;55.700;38.270;2022-08-01T03:08:29;100108.78;;;13.39;62.03
55347;BME280;41218;55.700;38.270;2022-08-01T03:13:31;100106.81;;;13.40;62.06
55347;BME280;41218;55.700;38.270;2022-08-01T03:18:33;100106.00;;;13.39;62.44
55347;BME280;41218;55.700;38.270;2022-08-01T03:23:36;100095.69;;;13.40;63.15
55347;BME280;41218;55.700;38.270;2022-08-01T03:28:38;100100.91;;;13.45;62.77
55347;BME280;41218;55.700;38.270;2022-08-01T03:33:40;100097.78;;;13.50;63.10
55347;BME280;41218;55.700;38.270;2022-08-01T03:38:42;100093.88;;;13.55;63.68
55347;BME280;41218;55.700;38.270;2022-08-01T03:44:20;100105.50;;;13.68;65.35
55347;BME280;41218;55.700;38.270;2022-08-01T03:49:28;100099.19;;;13.71;64.73
55347;BME280;41218;55.700;38.270;2022-08-01T03:54:31;100108.44;;;13.86;65.01
55347;BME280;41218;55.700;38.270;2022-08-01T03:59:34;100064.63;;;13.68;65.08
55347;BME280;41218;55.700;38.270;2022-08-01T04:04:36;100102.25;;;14.03;65.17
55347;BME280;41218;55.700;38.270;2022-08-01T04:09:37;100099.94;;;14.12;65.59
55347;BME280;41218;55.700;38.270;2022-08-01T04:14:38;100096.44;;;14.22;66.11
55347;BME280;41218;55.700;38.270;2022-08-01T04:19:39;100104.94;;;14.44;66.22
55347;BME280;41218;55.700;38.270;2022-08-01T04:24:41;100092.63;;;14.49;66.65
55347;BME280;41218;55.700;38.270;2022-08-01T04:29:43;100088.00;;;14.67;66.68
55347;BME280;41218;55.700;38.270;2022-08-01T04:34:44;100118.81;;;15.07;66.69
55347;BME280;41218;55.700;38.270;2022-08-01T04:39:46;100067.44;;;14.93;66.45
55347;BME280;41218;55.700;38.270;2022-08-01T04:44:48;100103.38;;;15.38;66.38
55347;BME280;41218;55.700;38.270;2022-08-01T04:49:49;100085.91;;;15.59;65.81
55347;BME280;41218;55.700;38.270;2022-08-01T04:54:50;100058.84;;;15.67;65.21
55347;BME280;41218;55.700;38.270;2022-08-01T04:59:50;100098.69;;;16.17;64.42
55347;BME280;41218;55.700;38.270;2022-08-01T05:04:56;100112.22;;;16.48;63.49
55347;BME280;41218;55.700;38.270;2022-08-01T05:09:57;100094.66;;;16.65;63.14
55347;BME280;41218;55.700;38.270;2022-08-01T05:14:59;100119.25;;;17.02;62.66
55347;BME280;41218;55.700;38.270;2022-08-01T05:19:59;100101.25;;;17.18;61.87
55347;BME280;41218;55.700;38.270;2022-08-01T05:25:00;100122.97;;;17.59;61.91
55347;BME280;41218;55.700;38.270;2022-08-01T05:30:00;100084.59;;;17.67;60.62
55347;BME280;41218;55.700;38.270;2022-08-01T05:35:01;100113.09;;;18.07;60.22
55347;BME280;41218;55.700;38.270;2022-08-01T05:40:03;100098.28;;;18.06;58.91
55347;BME280;41218;55.700;38.270;2022-08-01T05:45:04;100088.19;;;18.19;58.64
55347;BME280;41218;55.700;38.270;2022-08-01T05:50:05;100092.78;;;18.40;57.93
55347;BME280;41218;55.700;38.270;2022-08-01T05:55:05;100112.00;;;18.76;57.77
55347;BME280;41218;55.700;38.270;2022-08-01T06:00:07;100087.19;;;18.78;56.78
55347;BME280;41218;55.700;38.270;2022-08-01T06:05:09;100115.63;;;19.11;56.02
55347;BME280;41218;55.700;38.270;2022-08-01T06:10:10;100095.09;;;19.18;55.56
55347;BME280;41218;55.700;38.270;2022-08-01T06:15:11;100114.72;;;19.49;55.46
55347;BME280;41218;55.700;38.270;2022-08-01T06:20:11;100083.94;;;19.45;54.47
55347;BME280;41218;55.700;38.270;2022-08-01T06:25:12;100085.63;;;19.66;53.96
55347;BME280;41218;55.700;38.270;2022-08-01T06:30:13;100097.28;;;19.92;52.88
55347;BME280;41218;55.700;38.270;2022-08-01T06:35:15;100116.06;;;20.18;52.12
55347;BME280;41218;55.700;38.270;2022-08-01T06:40:15;100119.88;;;20.32;52.16
55347;BME280;41218;55.700;38.270;2022-08-01T06:45:16;100117.22;;;20.45;51.48
55347;BME280;41218;55.700;38.270;2022-08-01T06:50:17;100110.97;;;20.57;51.22
55347;BME280;41218;55.700;38.270;2022-08-01T06:55:18;100102.72;;;20.70;50.74
55347;BME280;41218;55.700;38.270;2022-08-01T07:00:21;100122.41;;;20.90;50.15
55347;BME280;41218;55.700;38.270;2022-08-01T07:05:22;100105.19;;;20.88;50.13
55347;BME280;41218;55.700;38.270;2022-08-01T07:10:23;100093.09;;;20.91;49.80
55347;BME280;41218;55.700;38.270;2022-08-01T07:15:24;100086.47;;;21.01;49.16
55347;BME280;41218;55.700;38.270;2022-08-01T07:20:26;100100.75;;;21.27;48.78
55347;BME280;41218;55.700;38.270;2022-08-01T07:25:27;100104.47;;;21.44;48.56
55347;BME280;41218;55.700;38.270;2022-08-01T07:30:27;100108.88;;;21.61;48.00
55347;BME280;41218;55.700;38.270;2022-08-01T07:35:28;100115.06;;;21.72;47.60
55347;BME280;41218;55.700;38.270;2022-08-01T07:40:29;100118.22;;;21.91;47.21
55347;BME280;41218;55.700;38.270;2022-08-01T07:45:30;100112.78;;;22.00;46.21
55347;BME280;41218;55.700;38.270;2022-08-01T07:50:31;100120.75;;;22.18;45.53
55347;BME280;41218;55.700;38.270;2022-08-01T07:55:32;100098.94;;;22.22;45.41
55347;BME280;41218;55.700;38.270;2022-08-01T08:00:32;100103.91;;;22.34;45.23
55347;BME280;41218;55.700;38.270;2022-08-01T08:05:33;100097.28;;;22.41;45.17
55347;BME280;41218;55.700;38.270;2022-08-01T08:10:35;100107.97;;;22.63;44.60
55347;BME280;41218;55.700;38.270;2022-08-01T08:15:36;100088.34;;;22.59;44.21
55347;BME280;41218;55.700;38.270;2022-08-01T08:20:37;100100.72;;;22.78;44.16
55347;BME280;41218;55.700;38.270;2022-08-01T08:25:38;100093.03;;;22.78;43.58
55347;BME280;41218;55.700;38.270;2022-08-01T08:30:39;100082.94;;;22.65;43.33
55347;BME280;41218;55.700;38.270;2022-08-01T08:35:40;100085.25;;;22.70;43.61
55347;BME280;41218;55.700;38.270;2022-08-01T08:40:41;100093.53;;;22.90;43.34
55347;BME280;41218;55.700;38.270;2022-08-01T08:45:43;100078.66;;;22.89;43.31
55347;BME280;41218;55.700;38.270;2022-08-01T08:50:45;100085.72;;;23.10;42.72
55347;BME280;41218;55.700;38.270;2022-08-01T08:55:47;100072.84;;;23.09;42.49
55347;BME280;41218;55.700;38.270;2022-08-01T09:00:54;100091.25;;;23.14;41.91
55347;BME280;41218;55.700;38.270;2022-08-01T09:05:55;100072.63;;;23.04;42.61
55347;BME280;41218;55.700;38.270;2022-08-01T09:10:56;100055.44;;;22.98;42.18
55347;BME280;41218;55.700;38.270;2022-08-01T09:15:58;100044.94;;;22.98;42.08
55347;BME280;41218;55.700;38.270;2022-08-01T09:26:06;100057.88;;;23.25;41.79
55347;BME280;41218;55.700;38.270;2022-08-01T09:31:09;100076.72;;;23.41;41.57
55347;BME280;41218;55.700;38.270;2022-08-01T09:36:10;100031.56;;;23.15;41.72
55347;BME280;41218;55.700;38.270;2022-08-01T09:41:10;100066.44;;;23.60;41.32
55347;BME280;41218;55.700;38.270;2022-08-01T09:46:11;100060.91;;;23.69;40.95
55347;BME280;41218;55.700;38.270;2022-08-01T09:51:12;100043.44;;;23.62;40.48
55347;BME280;41218;55.700;38.270;2022-08-01T09:56:13;100071.75;;;23.96;40.37
55347;BME280;41218;55.700;38.270;2022-08-01T10:01:13;100053.88;;;24.12;39.89
55347;BME280;41218;55.700;38.270;2022-08-01T10:06:21;100044.72;;;24.08;39.15
55347;BME280;41218;55.700;38.270;2022-08-01T10:11:22;100059.06;;;24.14;39.84
55347;BME280;41218;55.700;38.270;2022-08-01T10:16:24;100059.09;;;24.01;40.01
55347;BME280;41218;55.700;38.270;2022-08-01T10:21:27;100056.28;;;24.01;40.32
55347;BME280;41218;55.700;38.270;2022-08-01T10:26:29;100054.81;;;23.96;40.24
55347;BME280;41218;55.700;38.270;2022-08-01T10:31:32;100031.13;;;23.81;40.56
55347;BME280;41218;55.700;38.270;2022-08-01T10:36:33;100034.28;;;23.83;40.09
55347;BME280;41218;55.700;38.270;2022-08-01T10:41:38;100027.19;;;23.78;39.83
55347;BME280;41218;55.700;38.270;2022-08-01T10:46:39;100046.13;;;23.91;39.94
55347;BME280;41218;55.700;38.270;2022-08-01T10:51:43;100025.50;;;23.81;39.61
55347;BME280;41218;55.700;38.270;2022-08-01T10:56:47;100035.63;;;23.91;39.80
55347;BME280;41218;55.700;38.270;2022-08-01T11:01:59;100026.00;;;24.02;39.40
55347;BME280;41218;55.700;38.270;2022-08-01T11:07:04;100036.19;;;24.34;39.39
55347;BME280;41218;55.700;38.270;2022-08-01T11:12:09;100041.03;;;24.33;39.19
55347;BME280;41218;55.700;38.270;2022-08-01T11:17:35;100039.84;;;24.22;38.78
55347;BME280;41218;55.700;38.270;2022-08-01T11:44:06;100016.72;;;24.36;39.19
55347;BME280;41218;55.700;38.270;2022-08-01T11:49:28;100017.28;;;24.44;38.57
55347;BME280;41218;55.700;38.270;2022-08-01T11:54:31;100010.47;;;24.54;38.20
55347;BME280;41218;55.700;38.270;2022-08-01T11:59:43;99993.22;;;24.61;38.26
55347;BME280;41218;55.700;38.270;2022-08-01T12:04:52;99996.47;;;24.72;38.06
55347;BME280;41218;55.700;38.270;2022-08-01T12:10:15;99993.66;;;24.82;38.12
55347;BME280;41218;55.700;38.270;2022-08-01T12:15:17;99987.63;;;24.92;37.93
55347;BME280;41218;55.700;38.270;2022-08-01T12:20:22;99963.88;;;24.90;37.72
55347;BME280;41218;55.700;38.270;2022-08-01T12:25:23;99963.00;;;25.02;37.52
55347;BME280;41218;55.700;38.270;2022-08-01T12:30:24;99984.91;;;25.20;37.41
55347;BME280;41218;55.700;38.270;2022-08-01T12:35:28;99987.63;;;25.24;37.24
55347;BME280;41218;55.700;38.270;2022-08-01T12:40:34;99974.91;;;25.28;36.90
55347;BME280;41218;55.700;38.270;2022-08-01T12:45:44;99987.66;;;25.33;37.14
55347;BME280;41218;55.700;38.270;2022-08-01T12:50:48;99968.13;;;25.26;37.29
55347;BME280;41218;55.700;38.270;2022-08-01T12:55:55;99987.19;;;25.34;36.81
55347;BME280;41218;55.700;38.270;2022-08-01T13:01:09;99972.88;;;25.38;37.27
55347;BME280;41218;55.700;38.270;2022-08-01T13:06:12;99965.69;;;25.46;37.26
55347;BME280;41218;55.700;38.270;2022-08-01T13:11:15;99968.22;;;25.63;36.73
55347;BME280;41218;55.700;38.270;2022-08-01T13:16:21;99962.44;;;25.66;36.79
55347;BME280;41218;55.700;38.270;2022-08-01T13:21:23;99965.72;;;25.65;37.12
55347;BME280;41218;55.700;38.270;2022-08-01T13:31:44;99964.94;;;25.64;37.35
55347;BME280;41218;55.700;38.270;2022-08-01T13:36:45;99960.56;;;25.63;37.55
55347;BME280;41218;55.700;38.270;2022-08-01T13:41:49;99939.78;;;25.57;37.38
55347;BME280;41218;55.700;38.270;2022-08-01T13:46:50;99961.66;;;25.66;37.31
55347;BME280;41218;55.700;38.270;2022-08-01T13:51:51;99956.31;;;25.68;37.18
55347;BME280;41218;55.700;38.270;2022-08-01T13:56:54;99950.31;;;25.66;36.83
55347;BME280;41218;55.700;38.270;2022-08-01T14:01:55;99910.47;;;25.32;36.82
55347;BME280;41218;55.700;38.270;2022-08-01T14:06:58;99914.09;;;25.33;36.88
55347;BME280;41218;55.700;38.270;2022-08-01T14:11:59;99944.19;;;25.49;37.03
55347;BME280;41218;55.700;38.270;2022-08-01T14:16:59;99933.91;;;25.42;37.12
55347;BME280;41218;55.700;38.270;2022-08-01T14:22:00;99932.03;;;25.48;37.05
55347;BME280;41218;55.700;38.270;2022-08-01T14:27:01;99956.59;;;25.61;36.87
55347;BME280;41218;55.700;38.270;2022-08-01T14:32:02;99960.22;;;25.70;37.14
55347;BME280;41218;55.700;38.270;2022-08-01T14:37:03;99941.50;;;25.73;36.71
55347;BME280;41218;55.700;38.270;2022-08-01T14:42:04;99930.97;;;25.64;36.93
55347;BME280;41218;55.700;38.270;2022-08-01T14:47:04;99926.56;;;25.54;36.91
55347;BME280;41218;55.700;38.270;2022-08-01T14:52:05;99928.59;;;25.53;36.96
55347;BME280;41218;55.700;38.270;2022-08-01T14:57:06;99948.28;;;25.57;37.24
55347;BME280;41218;55.700;38.270;2022-08-01T15:02:06;99941.03;;;25.47;37.06
55347;BME280;41218;55.700;38.270;2022-08-01T15:07:10;99915.97;;;25.27;37.13
55347;BME280;41218;55.700;38.270;2022-08-01T15:12:11;99923.94;;;25.19;37.36
55347;BME280;41218;55.700;38.270;2022-08-01T15:17:12;99897.16;;;25.02;37.63
55347;BME280;41218;55.700;38.270;2022-08-01T15:22:13;99910.34;;;24.95;37.70
55347;BME280;41218;55.700;38.270;2022-08-01T15:27:14;99939.41;;;24.96;37.92
55347;BME280;41218;55.700;38.270;2022-08-01T15:32:15;99912.75;;;24.66;38.27
55347;BME280;41218;55.700;38.270;2022-08-01T15:37:15;99893.28;;;24.46;38.94
55347;BME280;41218;55.700;38.270;2022-08-01T15:42:17;99893.34;;;24.33;39.67
55347;BME280;41218;55.700;38.270;2022-08-01T15:47:18;99908.88;;;24.28;40.29
55347;BME280;41218;55.700;38.270;2022-08-01T15:52:19;99912.22;;;24.14;40.67
55347;BME280;41218;55.700;38.270;2022-08-01T15:57:20;99920.03;;;24.10;41.49
55347;BME280;41218;55.700;38.270;2022-08-01T16:02:20;99895.00;;;23.77;42.12
55347;BME280;41218;55.700;38.270;2022-08-01T16:07:21;99907.72;;;23.82;42.41
55347;BME280;41218;55.700;38.270;2022-08-01T16:12:22;99913.50;;;23.78;42.93
55347;BME280;41218;55.700;38.270;2022-08-01T16:17:22;99929.66;;;23.77;43.39
55347;BME280;41218;55.700;38.270;2022-08-01T16:22:23;99930.56;;;23.62;43.77
55347;BME280;41218;55.700;38.270;2022-08-01T16:27:24;99946.03;;;23.57;43.88
55347;BME280;41218;55.700;38.270;2022-08-01T16:32:24;99909.78;;;23.20;44.33
55347;BME280;41218;55.700;38.270;2022-08-01T16:37:25;99942.69;;;23.36;44.50
55347;BME280;41218;55.700;38.270;2022-08-01T16:42:25;99955.13;;;23.26;44.58
55347;BME280;41218;55.700;38.270;2022-08-01T16:47:26;99940.47;;;23.06;45.05
55347;BME280;41218;55.700;38.270;2022-08-01T16:52:27;99934.78;;;22.93;45.27
55347;BME280;41218;55.700;38.270;2022-08-01T16:57:27;99925.09;;;22.68;45.36
55347;BME280;41218;55.700;38.270;2022-08-01T17:02:32;99933.97;;;22.67;45.98
55347;BME280;41218;55.700;38.270;2022-08-01T17:07:32;99935.22;;;22.53;46.04
55347;BME280;41218;55.700;38.270;2022-08-01T17:12:33;99949.41;;;22.49;46.62
55347;BME280;41218;55.700;38.270;2022-08-01T17:17:35;99946.09;;;22.38;46.74
55347;BME280;41218;55.700;38.270;2022-08-01T17:22:38;99944.22;;;22.18;46.67
55347;BME280;41218;55.700;38.270;2022-08-01T17:27:38;99929.84;;;22.00;47.14
55347;BME280;41218;55.700;38.270;2022-08-01T17:32:40;99959.56;;;22.01;47.16
55347;BME280;41218;55.700;38.270;2022-08-01T17:37:41;99948.97;;;21.76;47.66
55347;BME280;41218;55.700;38.270;2022-08-01T17:42:44;99948.72;;;21.70;47.38
55347;BME280;41218;55.700;38.270;2022-08-01T17:47:45;99930.53;;;21.42;47.92
55347;BME280;41218;55.700;38.270;2022-08-01T17:52:45;99950.38;;;21.35;48.04
55347;BME280;41218;55.700;38.270;2022-08-01T17:57:46;99953.53;;;21.20;48.08
55347;BME280;41218;55.700;38.270;2022-08-01T18:02:47;99966.88;;;21.16;48.41
55347;BME280;41218;55.700;38.270;2022-08-01T18:07:47;99946.13;;;20.94;48.80
55347;BME280;41218;55.700;38.270;2022-08-01T18:12:50;99932.56;;;20.72;48.80
55347;BME280;41218;55.700;38.270;2022-08-01T18:17:51;99966.53;;;20.78;49.11
55347;BME280;41218;55.700;38.270;2022-08-01T18:22:52;99945.88;;;20.48;49.30
55347;BME280;41218;55.700;38.270;2022-08-01T18:27:52;99933.06;;;20.27;49.38
55347;BME280;41218;55.700;38.270;2022-08-01T18:32:53;99971.81;;;20.36;49.51
55347;BME280;41218;55.700;38.270;2022-08-01T18:37:55;99986.34;;;20.31;49.75
55347;BME280;41218;55.700;38.270;2022-08-01T18:43:04;99938.16;;;19.92;50.46
55347;BME280;41218;55.700;38.270;2022-08-01T18:48:07;99945.19;;;19.80;49.97
55347;BME280;41218;55.700;38.270;2022-08-01T18:53:08;99964.41;;;19.82;50.17
55347;BME280;41218;55.700;38.270;2022-08-01T18:58:08;99971.34;;;19.74;50.32
55347;BME280;41218;55.700;38.270;2022-08-01T19:03:09;99961.19;;;19.56;50.60
55347;BME280;41218;55.700;38.270;2022-08-01T19:08:10;99966.63;;;19.44;50.77
55347;BME280;41218;55.700;38.270;2022-08-01T19:13:10;99943.81;;;19.18;50.79
55347;BME280;41218;55.700;38.270;2022-08-01T19:18:11;99981.28;;;19.28;50.83
55347;BME280;41218;55.700;38.270;2022-08-01T19:23:19;99990.19;;;19.23;51.05
55347;BME280;41218;55.700;38.270;2022-08-01T19:28:44;99991.94;;;19.13;51.71
55347;BME280;41218;55.700;38.270;2022-08-01T19:33:45;99961.16;;;18.82;51.35
55347;BME280;41218;55.700;38.270;2022-08-01T19:38:47;99965.56;;;18.79;51.42
55347;BME280;41218;55.700;38.270;2022-08-01T19:43:49;99952.25;;;18.56;51.69
55347;BME280;41218;55.700;38.270;2022-08-01T19:48:50;99957.09;;;18.52;51.73
55347;BME280;41218;55.700;38.270;2022-08-01T19:53:52;99989.81;;;18.59;52.22
55347;BME280;41218;55.700;38.270;2022-08-01T19:58:55;99937.16;;;18.16;52.05
55347;BME280;41218;55.700;38.270;2022-08-01T20:04:00;99974.97;;;18.31;52.14
55347;BME280;41218;55.700;38.270;2022-08-01T20:09:04;99988.19;;;18.27;52.16
55347;BME280;41218;55.700;38.270;2022-08-01T20:14:05;99975.19;;;18.10;52.38
55347;BME280;41218;55.700;38.270;2022-08-01T20:19:05;99963.81;;;17.90;52.40
55347;BME280;41218;55.700;38.270;2022-08-01T20:24:09;99940.41;;;17.69;52.80
55347;BME280;41218;55.700;38.270;2022-08-01T20:29:11;99997.31;;;17.97;52.70
55347;BME280;41218;55.700;38.270;2022-08-01T20:34:15;99973.94;;;17.69;52.86
55347;BME280;41218;55.700;38.270;2022-08-01T20:39:18;99998.25;;;17.76;53.20
55347;BME280;41218;55.700;38.270;2022-08-01T20:44:20;99972.13;;;17.52;53.27
55347;BME280;41218;55.700;38.270;2022-08-01T20:49:21;99956.31;;;17.31;53.20
55347;BME280;41218;55.700;38.270;2022-08-01T20:54:22;100014.72;;;17.67;52.97
55347;BME280;41218;55.700;38.270;2022-08-01T20:59:49;100000.53;;;17.39;53.65
55347;BME280;41218;55.700;38.270;2022-08-01T21:04:56;100013.34;;;17.37;53.67
55347;BME280;41218;55.700;38.270;2022-08-01T21:10:07;100011.78;;;17.29;54.16
55347;BME280;41218;55.700;38.270;2022-08-01T21:15:13;100005.88;;;17.19;54.12
55347;BME280;41218;55.700;38.270;2022-08-01T21:20:15;99984.44;;;17.02;54.07
55347;BME280;41218;55.700;38.270;2022-08-01T21:25:24;99994.44;;;16.96;54.46
55347;BME280;41218;55.700;38.270;2022-08-01T21:30:26;100007.19;;;17.00;54.30
55347;BME280;41218;55.700;38.270;2022-08-01T21:35:28;99975.78;;;16.75;54.28
55347;BME280;41218;55.700;38.270;2022-08-01T21:40:29;100010.75;;;17.01;53.79
55347;BME280;41218;55.700;38.270;2022-08-01T21:45:31;100004.91;;;16.74;53.99
55347;BME280;41218;55.700;38.270;2022-08-01T21:50:38;100006.06;;;16.87;53.81
55347;BME280;41218;55.700;38.270;2022-08-01T22:01:06;99995.03;;;16.51;54.83
55347;BME280;41218;55.700;38.270;2022-08-01T22:06:08;100003.41;;;16.51;55.07
55347;BME280;41218;55.700;38.270;2022-08-01T22:11:12;100007.81;;;16.45;55.26
55347;BME280;41218;55.700;38.270;2022-08-01T22:16:13;99983.97;;;16.26;55.15
55347;BME280;41218;55.700;38.270;2022-08-01T22:21:17;99981.97;;;16.19;55.26
55347;BME280;41218;55.700;38.270;2022-08-01T22:26:20;100011.03;;;16.26;55.43
55347;BME280;41218;55.700;38.270;2022-08-01T22:31:22;100011.47;;;16.17;55.33
55347;BME280;41218;55.700;38.270;2022-08-01T22:36:23;100004.69;;;16.07;55.98
55347;BME280;41218;55.700;38.270;2022-08-01T22:41:29;99997.16;;;16.00;55.89
55347;BME280;41218;55.700;38.270;2022-08-01T22:46:47;100015.47;;;16.01;56.62
55347;BME280;41218;55.700;38.270;2022-08-01T22:57:24;99975.69;;;15.79;56.63
55347;BME280;41218;55.700;38.270;2022-08-01T23:02:29;99977.69;;;15.75;56.28
55347;BME280;41218;55.700;38.270;2022-08-01T23:07:37;99949.41;;;15.52;57.09
55347;BME280;41218;55.700;38.270;2022-08-01T23:12:39;99969.28;;;15.61;56.44
55347;BME280;41218;55.700;38.270;2022-08-01T23:17:41;99970.09;;;15.61;56.51
55347;BME280;41218;55.700;38.270;2022-08-01T23:22:42;99972.88;;;15.65;56.49
55347;BME280;41218;55.700;38.270;2022-08-01T23:27:45;99970.91;;;15.66;56.56
55347;BME280;41218;55.700;38.270;2022-08-01T23:32:46;99951.00;;;15.46;56.50
55347;BME280;41218;55.700;38.270;2022-08-01T23:37:47;99958.16;;;15.39;56.62
55347;BME280;41218;55.700;38.270;2022-08-01T23:42:50;99969.72;;;15.45;56.57
55347;BME280;41218;55.700;38.270;2022-08-01T23:47:52;99938.28;;;15.23;56.83
55347;BME280;41218;55.700;38.270;2022-08-01T23:52:53;99956.56;;;15.31;56.74
55347;BME280;41218;55.700;38.270;2022-08-01T23:57:54;99978.44;;;15.36;56.80
